sensor_id;sensor_type;location;lat;lon;timestamp;pressure;altitude;pressure_sealevel;temperature;humidity
27980;BME280;15315;50.836;4.430;2022-12-10T00:03:10;100344.72;;;5.36;79.19
27980;BME280;15315;50.836;4.430;2022-12-10T00:13:10;100333.81;;;5.72;79.92
27980;BME280;15315;50.836;4.430;2022-12-10T00:23:10;100334.34;;;5.78;78.80
27980;BME280;15315;50.836;4.430;2022-12-10T00:33:11;100351.66;;;5.40;80.36
27980;BME280;15315;50.836;4.430;2022-12-10T00:43:11;100354.00;;;4.80;81.37
27980;BME280;15315;50.836;4.430;2022-12-10T00:53:11;100337.97;;;4.80;84.81
27980;BME280;15315;50.836;4.430;2022-12-10T01:03:12;100343.00;;;5.02;82.60
27980;BME280;15315;50.836;4.430;2022-12-10T01:13:13;100352.06;;;5.48;79.53
27980;BME280;15315;50.836;4.430;2022-12-10T01:23:13;100364.28;;;5.21;80.55
27980;BME280;15315;50.836;4.430;2022-12-10T01:33:13;100361.31;;;5.58;79.02
27980;BME280;15315;50.836;4.430;2022-12-10T01:43:14;100372.66;;;5.30;80.46
27980;BME280;15315;50.836;4.430;2022-12-10T01:53:15;100376.75;;;4.88;81.17
27980;BME280;15315;50.836;4.430;2022-12-10T02:03:23;100383.88;;;4.36;83.15
27980;BME280;15315;50.836;4.430;2022-12-10T02:13:41;100403.75;;;4.81;82.57
27980;BME280;15315;50.836;4.430;2022-12-10T02:23:46;100405.09;;;4.90;81.77
27980;BME280;15315;50.836;4.430;2022-12-10T02:33:50;100394.72;;;5.01;79.91
27980;BME280;15315;50.836;4.430;2022-12-10T02:43:52;100397.38;;;5.67;78.89
27980;BME280;15315;50.836;4.430;2022-12-10T02:53:59;100387.63;;;5.50;79.61
27980;BME280;15315;50.836;4.430;2022-12-10T03:04:06;100389.91;;;5.40;79.79
27980;BME280;15315;50.836;4.430;2022-12-10T03:14:13;100384.66;;;5.06;81.31
27980;BME280;15315;50.836;4.430;2022-12-10T03:24:17;100381.03;;;5.07;82.97
27980;BME280;15315;50.836;4.430;2022-12-10T03:34:17;100393.66;;;5.21;81.12
27980;BME280;15315;50.836;4.430;2022-12-10T03:44:35;100395.50;;;5.03;85.16
27980;BME280;15315;50.836;4.430;2022-12-10T03:54:36;100398.81;;;5.41;82.32
27980;BME280;15315;50.836;4.430;2022-12-10T04:04:36;100402.69;;;5.51;82.21
27980;BME280;15315;50.836;4.430;2022-12-10T04:14:36;100396.91;;;5.27;82.97
27980;BME280;15315;50.836;4.430;2022-12-10T04:24:55;100396.38;;;5.36;83.83
27980;BME280;15315;50.836;4.430;2022-12-10T04:35:14;100405.47;;;5.49;81.92
27980;BME280;15315;50.836;4.430;2022-12-10T04:45:15;100416.81;;;4.88;87.37
27980;BME280;15315;50.836;4.430;2022-12-10T04:55:15;100421.69;;;4.97;85.97
27980;BME280;15315;50.836;4.430;2022-12-10T05:05:17;100417.06;;;4.83;87.17
27980;BME280;15315;50.836;4.430;2022-12-10T05:15:17;100420.41;;;5.04;87.00
27980;BME280;15315;50.836;4.430;2022-12-10T05:25:18;100422.88;;;4.91;89.01
27980;BME280;15315;50.836;4.430;2022-12-10T05:35:18;100399.97;;;5.03;86.43
27980;BME280;15315;50.836;4.430;2022-12-10T05:45:18;100421.38;;;4.68;87.63
27980;BME280;15315;50.836;4.430;2022-12-10T05:55:19;100417.78;;;4.87;88.66
27980;BME280;15315;50.836;4.430;2022-12-10T06:05:20;100426.13;;;4.28;92.50
27980;BME280;15315;50.836;4.430;2022-12-10T06:15:20;100431.72;;;4.40;95.03
27980;BME280;15315;50.836;4.430;2022-12-10T06:25:20;100436.91;;;4.60;93.90
27980;BME280;15315;50.836;4.430;2022-12-10T06:35:21;100444.91;;;4.95;92.00
27980;BME280;15315;50.836;4.430;2022-12-10T06:45:21;100444.13;;;4.93;91.02
27980;BME280;15315;50.836;4.430;2022-12-10T06:55:22;100456.78;;;4.72;91.37
27980;BME280;15315;50.836;4.430;2022-12-10T07:05:22;100460.25;;;4.38;93.59
27980;BME280;15315;50.836;4.430;2022-12-10T07:15:22;100468.19;;;4.40;91.38
27980;BME280;15315;50.836;4.430;2022-12-10T07:25:23;100474.97;;;4.28;94.15
27980;BME280;15315;50.836;4.430;2022-12-10T07:35:24;100486.66;;;4.44;94.77
27980;BME280;15315;50.836;4.430;2022-12-10T07:45:24;100491.09;;;4.62;92.18
27980;BME280;15315;50.836;4.430;2022-12-10T07:55:25;100502.94;;;4.57;93.39
27980;BME280;15315;50.836;4.430;2022-12-10T08:05:25;100510.00;;;4.58;93.11
27980;BME280;15315;50.836;4.430;2022-12-10T08:15:26;100524.47;;;5.07;90.00
27980;BME280;15315;50.836;4.430;2022-12-10T08:25:28;100533.38;;;4.53;91.83
27980;BME280;15315;50.836;4.430;2022-12-10T08:35:28;100516.97;;;4.23;93.84
27980;BME280;15315;50.836;4.430;2022-12-10T08:45:29;100544.22;;;4.85;92.94
27980;BME280;15315;50.836;4.430;2022-12-10T08:55:29;100532.91;;;4.98;90.95
27980;BME280;15315;50.836;4.430;2022-12-10T09:05:30;100563.13;;;4.45;92.21
27980;BME280;15315;50.836;4.430;2022-12-10T09:15:30;100564.03;;;4.44;92.88
27980;BME280;15315;50.836;4.430;2022-12-10T09:25:31;100565.84;;;4.62;93.16
27980;BME280;15315;50.836;4.430;2022-12-10T09:35:31;100571.16;;;4.81;91.80
27980;BME280;15315;50.836;4.430;2022-12-10T09:55:51;100575.19;;;5.58;87.94
27980;BME280;15315;50.836;4.430;2022-12-10T10:05:53;100579.75;;;5.90;88.07
27980;BME280;15315;50.836;4.430;2022-12-10T10:15:54;100584.09;;;5.41;89.10
27980;BME280;15315;50.836;4.430;2022-12-10T10:25:55;100580.63;;;5.74;87.68
27980;BME280;15315;50.836;4.430;2022-12-10T10:35:56;100588.91;;;6.02;85.93
27980;BME280;15315;50.836;4.430;2022-12-10T10:46:04;100601.81;;;6.11;84.75
27980;BME280;15315;50.836;4.430;2022-12-10T10:56:16;100603.13;;;6.68;84.57
27980;BME280;15315;50.836;4.430;2022-12-10T11:06:17;100593.72;;;6.92;82.47
27980;BME280;15315;50.836;4.430;2022-12-10T11:16:22;100580.94;;;6.82;82.20
27980;BME280;15315;50.836;4.430;2022-12-10T12:28:48;100560.97;;;7.17;84.33
27980;BME280;15315;50.836;4.430;2022-12-10T12:49:31;100591.03;;;6.92;83.71
27980;BME280;15315;50.836;4.430;2022-12-10T13:20:34;100586.56;;;6.77;85.33
27980;BME280;15315;50.836;4.430;2022-12-10T13:30:35;100581.72;;;6.20;89.03
27980;BME280;15315;50.836;4.430;2022-12-10T13:40:41;100594.66;;;6.11;90.88
27980;BME280;15315;50.836;4.430;2022-12-10T13:51:10;100591.47;;;6.53;88.93
27980;BME280;15315;50.836;4.430;2022-12-10T14:01:23;100592.69;;;6.95;87.80
27980;BME280;15315;50.836;4.430;2022-12-10T14:11:37;100605.91;;;6.82;87.43
27980;BME280;15315;50.836;4.430;2022-12-10T14:21:40;100617.97;;;6.58;90.14
27980;BME280;15315;50.836;4.430;2022-12-10T14:31:46;100617.09;;;6.09;92.39
27980;BME280;15315;50.836;4.430;2022-12-10T14:41:48;100622.78;;;6.36;91.96
27980;BME280;15315;50.836;4.430;2022-12-10T14:51:50;100635.09;;;6.23;95.62
27980;BME280;15315;50.836;4.430;2022-12-10T15:01:54;100636.38;;;6.16;96.90
27980;BME280;15315;50.836;4.430;2022-12-10T15:11:58;100638.56;;;6.07;97.06
27980;BME280;15315;50.836;4.430;2022-12-10T15:22:19;100631.91;;;6.16;98.16
27980;BME280;15315;50.836;4.430;2022-12-10T15:32:24;100629.50;;;6.27;97.42
27980;BME280;15315;50.836;4.430;2022-12-10T15:52:35;100635.78;;;5.93;99.11
27980;BME280;15315;50.836;4.430;2022-12-10T16:02:39;100635.38;;;6.66;95.38
27980;BME280;15315;50.836;4.430;2022-12-10T16:12:41;100642.53;;;6.18;98.51
27980;BME280;15315;50.836;4.430;2022-12-10T16:22:41;100649.19;;;6.26;97.69
27980;BME280;15315;50.836;4.430;2022-12-10T16:32:41;100651.78;;;6.10;100.00
27980;BME280;15315;50.836;4.430;2022-12-10T16:42:42;100667.63;;;6.32;98.79
27980;BME280;15315;50.836;4.430;2022-12-10T16:52:43;100666.91;;;5.94;100.00
27980;BME280;15315;50.836;4.430;2022-12-10T17:02:44;100666.09;;;5.24;100.00
27980;BME280;15315;50.836;4.430;2022-12-10T17:12:44;100664.06;;;5.10;100.00
27980;BME280;15315;50.836;4.430;2022-12-10T17:22:45;100658.00;;;5.94;100.00
27980;BME280;15315;50.836;4.430;2022-12-10T17:32:46;100657.09;;;5.78;100.00
27980;BME280;15315;50.836;4.430;2022-12-10T17:42:46;100649.44;;;5.00;100.00
27980;BME280;15315;50.836;4.430;2022-12-10T17:52:47;100645.97;;;6.02;100.00
27980;BME280;15315;50.836;4.430;2022-12-10T18:02:47;100652.91;;;6.24;100.00
27980;BME280;15315;50.836;4.430;2022-12-10T18:12:48;100662.69;;;6.40;100.00
27980;BME280;15315;50.836;4.430;2022-12-10T18:22:55;100655.50;;;6.25;100.00
27980;BME280;15315;50.836;4.430;2022-12-10T18:32:57;100654.75;;;6.39;100.00
27980;BME280;15315;50.836;4.430;2022-12-10T18:42:58;100654.03;;;5.85;100.00
27980;BME280;15315;50.836;4.430;2022-12-10T18:52:58;100656.28;;;6.10;100.00
27980;BME280;15315;50.836;4.430;2022-12-10T19:02:59;100659.50;;;5.99;100.00
27980;BME280;15315;50.836;4.430;2022-12-10T19:12:59;100643.00;;;6.08;100.00
27980;BME280;15315;50.836;4.430;2022-12-10T19:22:59;100649.69;;;6.00;100.00
27980;BME280;15315;50.836;4.430;2022-12-10T19:33:00;100652.94;;;5.72;100.00
27980;BME280;15315;50.836;4.430;2022-12-10T19:43:00;100637.59;;;5.76;100.00
27980;BME280;15315;50.836;4.430;2022-12-10T19:53:02;100645.00;;;5.71;100.00
27980;BME280;15315;50.836;4.430;2022-12-10T20:03:03;100658.06;;;6.09;100.00
27980;BME280;15315;50.836;4.430;2022-12-10T20:13:03;100648.91;;;6.15;100.00
27980;BME280;15315;50.836;4.430;2022-12-10T20:23:04;100656.13;;;5.44;100.00
27980;BME280;15315;50.836;4.430;2022-12-10T20:33:04;100658.94;;;6.10;100.00
27980;BME280;15315;50.836;4.430;2022-12-10T20:43:04;100662.91;;;6.53;100.00
27980;BME280;15315;50.836;4.430;2022-12-10T20:53:05;100660.19;;;6.70;100.00
27980;BME280;15315;50.836;4.430;2022-12-10T21:03:05;100658.66;;;6.49;100.00
27980;BME280;15315;50.836;4.430;2022-12-10T21:13:05;100656.41;;;6.41;100.00
27980;BME280;15315;50.836;4.430;2022-12-10T21:23:07;100660.59;;;6.30;100.00
27980;BME280;15315;50.836;4.430;2022-12-10T21:33:09;100668.88;;;6.42;100.00
27980;BME280;15315;50.836;4.430;2022-12-10T21:43:14;100665.34;;;6.57;99.10
27980;BME280;15315;50.836;4.430;2022-12-10T21:53:15;100661.34;;;5.99;100.00
27980;BME280;15315;50.836;4.430;2022-12-10T22:03:16;100652.34;;;6.34;100.00
27980;BME280;15315;50.836;4.430;2022-12-10T22:13:17;100648.78;;;6.34;100.00
27980;BME280;15315;50.836;4.430;2022-12-10T22:23:17;100638.59;;;5.90;100.00
27980;BME280;15315;50.836;4.430;2022-12-10T22:33:18;100647.09;;;5.98;100.00
27980;BME280;15315;50.836;4.430;2022-12-10T22:43:18;100636.63;;;5.77;100.00
27980;BME280;15315;50.836;4.430;2022-12-10T22:53:19;100639.25;;;5.08;100.00
27980;BME280;15315;50.836;4.430;2022-12-10T23:03:19;100631.59;;;5.36;100.00
27980;BME280;15315;50.836;4.430;2022-12-10T23:13:20;100632.75;;;4.95;100.00
27980;BME280;15315;50.836;4.430;2022-12-10T23:23:20;100642.91;;;5.41;100.00
27980;BME280;15315;50.836;4.430;2022-12-10T23:33:21;100644.19;;;4.99;100.00
27980;BME280;15315;50.836;4.430;2022-12-10T23:43:22;100648.31;;;4.50;100.00
27980;BME280;15315;50.836;4.430;2022-12-10T23:53:22;100639.53;;;5.02;100.00
